sensor_id;sensor_type;location;lat;lon;timestamp;temperature;humidity
7331;DHT22;3706;49.198;7.064;2022-09-03T00:00:55;15.50;99.80
7331;DHT22;3706;49.198;7.064;2022-09-03T00:03:25;15.50;99.90
7331;DHT22;3706;49.198;7.064;2022-09-03T00:06:04;15.50;99.90
7331;DHT22;3706;49.198;7.064;2022-09-03T00:08:35;15.60;99.90
7331;DHT22;3706;49.198;7.064;2022-09-03T00:11:10;15.60;99.90
7331;DHT22;3706;49.198;7.064;2022-09-03T00:13:43;15.50;99.90
7331;DHT22;3706;49.198;7.064;2022-09-03T00:16:15;15.60;99.90
7331;DHT22;3706;49.198;7.064;2022-09-03T00:18:47;15.60;99.90
7331;DHT22;3706;49.198;7.064;2022-09-03T00:21:20;15.70;99.90
7331;DHT22;3706;49.198;7.064;2022-09-03T00:23:51;15.60;99.90
7331;DHT22;3706;49.198;7.064;2022-09-03T00:26:23;15.40;99.90
7331;DHT22;3706;49.198;7.064;2022-09-03T00:28:58;15.30;99.90
7331;DHT22;3706;49.198;7.064;2022-09-03T00:31:31;15.30;99.90
7331;DHT22;3706;49.198;7.064;2022-09-03T00:34:04;15.40;99.90
7331;DHT22;3706;49.198;7.064;2022-09-03T00:36:37;15.40;99.90
7331;DHT22;3706;49.198;7.064;2022-09-03T00:39:09;15.40;99.90
7331;DHT22;3706;49.198;7.064;2022-09-03T00:41:39;15.50;99.90
7331;DHT22;3706;49.198;7.064;2022-09-03T00:44:35;15.50;99.90
7331;DHT22;3706;49.198;7.064;2022-09-03T00:47:16;15.40;99.90
7331;DHT22;3706;49.198;7.064;2022-09-03T00:49:56;15.30;99.90
7331;DHT22;3706;49.198;7.064;2022-09-03T00:52:42;15.20;99.90
7331;DHT22;3706;49.198;7.064;2022-09-03T00:55:20;15.20;99.90
7331;DHT22;3706;49.198;7.064;2022-09-03T00:57:56;15.10;99.90
7331;DHT22;3706;49.198;7.064;2022-09-03T01:00:26;15.10;99.90
7331;DHT22;3706;49.198;7.064;2022-09-03T01:03:03;15.20;99.90
7331;DHT22;3706;49.198;7.064;2022-09-03T01:05:48;15.30;99.90
7331;DHT22;3706;49.198;7.064;2022-09-03T01:08:30;15.30;99.90
7331;DHT22;3706;49.198;7.064;2022-09-03T01:11:06;15.40;99.90
7331;DHT22;3706;49.198;7.064;2022-09-03T01:13:40;15.50;99.90
7331;DHT22;3706;49.198;7.064;2022-09-03T01:16:19;15.50;99.90
7331;DHT22;3706;49.198;7.064;2022-09-03T01:18:55;15.50;99.90
7331;DHT22;3706;49.198;7.064;2022-09-03T01:21:48;15.50;99.90
7331;DHT22;3706;49.198;7.064;2022-09-03T01:24:56;15.40;99.90
7331;DHT22;3706;49.198;7.064;2022-09-03T01:27:37;15.30;99.90
7331;DHT22;3706;49.198;7.064;2022-09-03T01:30:11;15.40;99.90
7331;DHT22;3706;49.198;7.064;2022-09-03T01:32:48;15.30;99.90
7331;DHT22;3706;49.198;7.064;2022-09-03T01:35:25;15.30;99.90
7331;DHT22;3706;49.198;7.064;2022-09-03T01:38:04;15.20;99.90
7331;DHT22;3706;49.198;7.064;2022-09-03T01:40:42;15.20;99.90
7331;DHT22;3706;49.198;7.064;2022-09-03T01:43:24;15.20;99.90
7331;DHT22;3706;49.198;7.064;2022-09-03T01:46:00;15.20;99.90
7331;DHT22;3706;49.198;7.064;2022-09-03T01:48:40;15.20;99.90
7331;DHT22;3706;49.198;7.064;2022-09-03T01:51:15;15.20;99.90
7331;DHT22;3706;49.198;7.064;2022-09-03T01:54:14;15.30;99.90
7331;DHT22;3706;49.198;7.064;2022-09-03T01:59:40;15.60;99.90
7331;DHT22;3706;49.198;7.064;2022-09-03T02:02:15;15.60;99.90
7331;DHT22;3706;49.198;7.064;2022-09-03T02:04:56;15.60;99.90
7331;DHT22;3706;49.198;7.064;2022-09-03T02:07:26;15.60;99.90
7331;DHT22;3706;49.198;7.064;2022-09-03T02:09:58;15.50;99.90
7331;DHT22;3706;49.198;7.064;2022-09-03T02:12:26;15.40;99.90
7331;DHT22;3706;49.198;7.064;2022-09-03T02:14:58;15.40;99.90
7331;DHT22;3706;49.198;7.064;2022-09-03T02:17:27;15.30;99.90
7331;DHT22;3706;49.198;7.064;2022-09-03T02:19:54;15.30;99.90
7331;DHT22;3706;49.198;7.064;2022-09-03T02:22:21;15.30;99.90
7331;DHT22;3706;49.198;7.064;2022-09-03T02:24:48;15.30;99.90
7331;DHT22;3706;49.198;7.064;2022-09-03T02:27:15;15.40;99.90
7331;DHT22;3706;49.198;7.064;2022-09-03T02:29:42;15.60;99.90
7331;DHT22;3706;49.198;7.064;2022-09-03T02:32:11;15.70;99.90
7331;DHT22;3706;49.198;7.064;2022-09-03T02:34:40;15.90;99.90
7331;DHT22;3706;49.198;7.064;2022-09-03T02:37:12;16.00;99.90
7331;DHT22;3706;49.198;7.064;2022-09-03T02:39:39;16.20;99.90
7331;DHT22;3706;49.198;7.064;2022-09-03T02:42:06;16.30;99.90
7331;DHT22;3706;49.198;7.064;2022-09-03T02:44:37;16.30;99.90
7331;DHT22;3706;49.198;7.064;2022-09-03T02:47:07;16.40;99.90
7331;DHT22;3706;49.198;7.064;2022-09-03T02:49:34;16.30;99.90
7331;DHT22;3706;49.198;7.064;2022-09-03T02:52:05;16.10;99.90
7331;DHT22;3706;49.198;7.064;2022-09-03T02:54:34;15.90;99.90
7331;DHT22;3706;49.198;7.064;2022-09-03T02:57:05;15.70;99.90
7331;DHT22;3706;49.198;7.064;2022-09-03T02:59:32;15.50;99.90
7331;DHT22;3706;49.198;7.064;2022-09-03T03:02:00;15.50;99.90
7331;DHT22;3706;49.198;7.064;2022-09-03T03:04:27;15.40;99.90
7331;DHT22;3706;49.198;7.064;2022-09-03T03:06:55;15.30;99.90
7331;DHT22;3706;49.198;7.064;2022-09-03T03:09:23;15.20;99.90
7331;DHT22;3706;49.198;7.064;2022-09-03T03:11:50;15.20;99.90
7331;DHT22;3706;49.198;7.064;2022-09-03T03:14:20;15.10;99.90
7331;DHT22;3706;49.198;7.064;2022-09-03T03:16:47;15.00;99.90
7331;DHT22;3706;49.198;7.064;2022-09-03T03:19:14;14.80;99.90
7331;DHT22;3706;49.198;7.064;2022-09-03T03:21:41;14.70;99.90
7331;DHT22;3706;49.198;7.064;2022-09-03T03:24:08;14.60;99.90
7331;DHT22;3706;49.198;7.064;2022-09-03T03:26:36;14.50;99.90
7331;DHT22;3706;49.198;7.064;2022-09-03T03:29:04;14.40;99.90
7331;DHT22;3706;49.198;7.064;2022-09-03T03:31:31;14.40;99.90
7331;DHT22;3706;49.198;7.064;2022-09-03T03:34:00;14.30;99.90
7331;DHT22;3706;49.198;7.064;2022-09-03T03:36:29;14.30;99.90
7331;DHT22;3706;49.198;7.064;2022-09-03T03:38:57;14.30;99.90
7331;DHT22;3706;49.198;7.064;2022-09-03T03:41:26;14.40;99.90
7331;DHT22;3706;49.198;7.064;2022-09-03T03:43:56;14.60;99.90
7331;DHT22;3706;49.198;7.064;2022-09-03T03:46:24;14.70;99.90
7331;DHT22;3706;49.198;7.064;2022-09-03T03:48:51;14.60;99.90
7331;DHT22;3706;49.198;7.064;2022-09-03T03:51:19;14.70;99.90
7331;DHT22;3706;49.198;7.064;2022-09-03T03:53:46;14.50;99.90
7331;DHT22;3706;49.198;7.064;2022-09-03T03:56:14;14.40;99.90
7331;DHT22;3706;49.198;7.064;2022-09-03T03:58:42;14.40;99.90
7331;DHT22;3706;49.198;7.064;2022-09-03T04:01:12;14.40;99.90
7331;DHT22;3706;49.198;7.064;2022-09-03T04:03:40;14.50;99.90
7331;DHT22;3706;49.198;7.064;2022-09-03T04:06:07;14.40;99.90
7331;DHT22;3706;49.198;7.064;2022-09-03T04:08:35;14.40;99.90
7331;DHT22;3706;49.198;7.064;2022-09-03T04:11:04;14.30;99.90
7331;DHT22;3706;49.198;7.064;2022-09-03T04:13:33;14.30;99.90
7331;DHT22;3706;49.198;7.064;2022-09-03T04:16:01;14.20;99.90
7331;DHT22;3706;49.198;7.064;2022-09-03T04:18:30;14.10;99.90
7331;DHT22;3706;49.198;7.064;2022-09-03T04:21:01;14.10;99.90
7331;DHT22;3706;49.198;7.064;2022-09-03T04:23:29;14.00;99.90
7331;DHT22;3706;49.198;7.064;2022-09-03T04:25:57;14.00;99.90
7331;DHT22;3706;49.198;7.064;2022-09-03T04:28:24;13.90;99.90
7331;DHT22;3706;49.198;7.064;2022-09-03T04:30:52;13.90;99.90
7331;DHT22;3706;49.198;7.064;2022-09-03T04:33:19;13.90;99.90
7331;DHT22;3706;49.198;7.064;2022-09-03T04:35:47;13.90;99.90
7331;DHT22;3706;49.198;7.064;2022-09-03T04:38:15;13.90;99.90
7331;DHT22;3706;49.198;7.064;2022-09-03T04:40:42;13.90;99.90
7331;DHT22;3706;49.198;7.064;2022-09-03T04:43:09;14.00;99.90
7331;DHT22;3706;49.198;7.064;2022-09-03T04:45:35;14.10;99.90
7331;DHT22;3706;49.198;7.064;2022-09-03T04:48:03;14.30;99.90
7331;DHT22;3706;49.198;7.064;2022-09-03T04:50:31;14.40;99.90
7331;DHT22;3706;49.198;7.064;2022-09-03T04:53:03;14.50;99.90
7331;DHT22;3706;49.198;7.064;2022-09-03T04:55:32;14.70;99.90
7331;DHT22;3706;49.198;7.064;2022-09-03T04:57:59;14.80;99.90
7331;DHT22;3706;49.198;7.064;2022-09-03T05:00:26;14.90;99.90
7331;DHT22;3706;49.198;7.064;2022-09-03T05:02:54;14.90;99.90
7331;DHT22;3706;49.198;7.064;2022-09-03T05:05:20;15.00;99.90
7331;DHT22;3706;49.198;7.064;2022-09-03T05:07:47;15.10;99.90
7331;DHT22;3706;49.198;7.064;2022-09-03T05:10:16;15.10;99.90
7331;DHT22;3706;49.198;7.064;2022-09-03T05:12:46;15.10;99.90
7331;DHT22;3706;49.198;7.064;2022-09-03T05:15:14;15.10;99.90
7331;DHT22;3706;49.198;7.064;2022-09-03T05:17:41;15.20;99.90
7331;DHT22;3706;49.198;7.064;2022-09-03T05:20:09;15.20;99.90
7331;DHT22;3706;49.198;7.064;2022-09-03T05:22:36;15.30;99.90
7331;DHT22;3706;49.198;7.064;2022-09-03T05:25:03;15.40;99.90
7331;DHT22;3706;49.198;7.064;2022-09-03T05:27:32;15.50;99.90
7331;DHT22;3706;49.198;7.064;2022-09-03T05:29:59;15.60;99.90
7331;DHT22;3706;49.198;7.064;2022-09-03T05:32:28;15.70;99.90
7331;DHT22;3706;49.198;7.064;2022-09-03T05:34:55;15.80;99.90
7331;DHT22;3706;49.198;7.064;2022-09-03T05:37:22;15.80;99.90
7331;DHT22;3706;49.198;7.064;2022-09-03T05:39:49;15.80;99.90
7331;DHT22;3706;49.198;7.064;2022-09-03T05:42:16;15.80;99.90
7331;DHT22;3706;49.198;7.064;2022-09-03T05:44:44;15.80;99.90
7331;DHT22;3706;49.198;7.064;2022-09-03T05:47:14;15.80;99.90
7331;DHT22;3706;49.198;7.064;2022-09-03T05:49:41;15.80;99.90
7331;DHT22;3706;49.198;7.064;2022-09-03T05:52:08;15.90;99.90
7331;DHT22;3706;49.198;7.064;2022-09-03T05:54:35;15.80;99.90
7331;DHT22;3706;49.198;7.064;2022-09-03T05:57:02;15.80;99.90
7331;DHT22;3706;49.198;7.064;2022-09-03T05:59:29;15.70;99.90
7331;DHT22;3706;49.198;7.064;2022-09-03T06:01:58;15.60;99.90
7331;DHT22;3706;49.198;7.064;2022-09-03T06:04:25;15.70;99.90
7331;DHT22;3706;49.198;7.064;2022-09-03T06:06:51;15.70;99.90
7331;DHT22;3706;49.198;7.064;2022-09-03T06:09:20;15.70;99.90
7331;DHT22;3706;49.198;7.064;2022-09-03T06:11:48;15.70;99.90
7331;DHT22;3706;49.198;7.064;2022-09-03T06:14:15;15.80;99.90
7331;DHT22;3706;49.198;7.064;2022-09-03T06:16:43;15.80;99.90
7331;DHT22;3706;49.198;7.064;2022-09-03T06:19:15;15.90;99.90
7331;DHT22;3706;49.198;7.064;2022-09-03T06:21:43;16.00;99.90
7331;DHT22;3706;49.198;7.064;2022-09-03T06:24:12;16.10;99.90
7331;DHT22;3706;49.198;7.064;2022-09-03T06:26:40;16.20;99.90
7331;DHT22;3706;49.198;7.064;2022-09-03T06:29:07;16.20;99.90
7331;DHT22;3706;49.198;7.064;2022-09-03T06:31:34;16.30;99.90
7331;DHT22;3706;49.198;7.064;2022-09-03T06:34:01;16.30;99.90
7331;DHT22;3706;49.198;7.064;2022-09-03T06:36:29;16.40;99.90
7331;DHT22;3706;49.198;7.064;2022-09-03T06:38:56;16.40;99.90
7331;DHT22;3706;49.198;7.064;2022-09-03T06:41:26;16.40;99.90
7331;DHT22;3706;49.198;7.064;2022-09-03T06:43:56;16.40;99.90
7331;DHT22;3706;49.198;7.064;2022-09-03T06:46:24;16.40;99.90
7331;DHT22;3706;49.198;7.064;2022-09-03T06:48:51;16.40;99.90
7331;DHT22;3706;49.198;7.064;2022-09-03T06:51:20;16.40;99.90
7331;DHT22;3706;49.198;7.064;2022-09-03T06:53:50;16.40;99.90
7331;DHT22;3706;49.198;7.064;2022-09-03T06:56:19;16.40;99.90
7331;DHT22;3706;49.198;7.064;2022-09-03T06:58:51;16.40;99.90
7331;DHT22;3706;49.198;7.064;2022-09-03T07:01:19;16.40;99.90
7331;DHT22;3706;49.198;7.064;2022-09-03T07:03:50;16.30;99.90
7331;DHT22;3706;49.198;7.064;2022-09-03T07:06:21;16.30;99.90
7331;DHT22;3706;49.198;7.064;2022-09-03T07:08:49;16.30;99.90
7331;DHT22;3706;49.198;7.064;2022-09-03T07:11:18;16.30;99.90
7331;DHT22;3706;49.198;7.064;2022-09-03T07:13:48;16.50;99.90
7331;DHT22;3706;49.198;7.064;2022-09-03T07:16:17;16.70;99.90
7331;DHT22;3706;49.198;7.064;2022-09-03T07:18:44;17.20;99.90
7331;DHT22;3706;49.198;7.064;2022-09-03T07:21:13;17.40;99.90
7331;DHT22;3706;49.198;7.064;2022-09-03T07:23:41;17.60;99.90
7331;DHT22;3706;49.198;7.064;2022-09-03T07:26:11;17.60;99.90
7331;DHT22;3706;49.198;7.064;2022-09-03T07:28:40;17.80;99.90
7331;DHT22;3706;49.198;7.064;2022-09-03T07:31:09;17.90;99.90
7331;DHT22;3706;49.198;7.064;2022-09-03T07:33:37;18.00;99.90
7331;DHT22;3706;49.198;7.064;2022-09-03T07:36:06;18.20;99.90
7331;DHT22;3706;49.198;7.064;2022-09-03T07:38:34;18.40;99.90
7331;DHT22;3706;49.198;7.064;2022-09-03T07:41:03;18.60;99.90
7331;DHT22;3706;49.198;7.064;2022-09-03T07:43:35;18.80;99.90
7331;DHT22;3706;49.198;7.064;2022-09-03T07:46:05;18.90;99.90
7331;DHT22;3706;49.198;7.064;2022-09-03T07:48:33;19.00;99.90
7331;DHT22;3706;49.198;7.064;2022-09-03T07:51:00;19.10;99.90
7331;DHT22;3706;49.198;7.064;2022-09-03T07:53:27;19.20;99.90
7331;DHT22;3706;49.198;7.064;2022-09-03T07:56:01;19.50;99.90
7331;DHT22;3706;49.198;7.064;2022-09-03T07:58:28;19.80;99.90
7331;DHT22;3706;49.198;7.064;2022-09-03T08:00:58;20.00;99.90
7331;DHT22;3706;49.198;7.064;2022-09-03T08:03:24;20.20;99.90
7331;DHT22;3706;49.198;7.064;2022-09-03T08:05:51;20.20;99.90
7331;DHT22;3706;49.198;7.064;2022-09-03T08:08:19;20.10;99.90
7331;DHT22;3706;49.198;7.064;2022-09-03T08:10:46;19.90;99.90
7331;DHT22;3706;49.198;7.064;2022-09-03T08:13:13;19.80;99.90
7331;DHT22;3706;49.198;7.064;2022-09-03T08:15:40;19.60;99.90
7331;DHT22;3706;49.198;7.064;2022-09-03T08:18:08;19.50;99.90
7331;DHT22;3706;49.198;7.064;2022-09-03T08:20:36;19.50;99.90
7331;DHT22;3706;49.198;7.064;2022-09-03T08:23:04;19.50;99.90
7331;DHT22;3706;49.198;7.064;2022-09-03T08:25:31;19.50;99.90
7331;DHT22;3706;49.198;7.064;2022-09-03T08:27:58;19.60;99.90
7331;DHT22;3706;49.198;7.064;2022-09-03T08:30:26;19.90;99.90
7331;DHT22;3706;49.198;7.064;2022-09-03T08:32:54;20.40;99.90
7331;DHT22;3706;49.198;7.064;2022-09-03T08:35:22;20.90;99.90
7331;DHT22;3706;49.198;7.064;2022-09-03T08:37:49;21.50;99.90
7331;DHT22;3706;49.198;7.064;2022-09-03T08:40:19;22.00;99.90
7331;DHT22;3706;49.198;7.064;2022-09-03T08:42:57;22.20;99.90
7331;DHT22;3706;49.198;7.064;2022-09-03T08:45:32;22.40;99.90
7331;DHT22;3706;49.198;7.064;2022-09-03T08:48:04;22.90;99.90
7331;DHT22;3706;49.198;7.064;2022-09-03T08:50:37;23.50;99.90
7331;DHT22;3706;49.198;7.064;2022-09-03T08:53:11;24.40;99.90
7331;DHT22;3706;49.198;7.064;2022-09-03T08:55:46;25.10;99.90
7331;DHT22;3706;49.198;7.064;2022-09-03T08:58:17;25.80;99.90
7331;DHT22;3706;49.198;7.064;2022-09-03T09:00:48;25.90;99.90
7331;DHT22;3706;49.198;7.064;2022-09-03T09:03:35;25.40;99.90
7331;DHT22;3706;49.198;7.064;2022-09-03T09:06:13;24.60;99.90
7331;DHT22;3706;49.198;7.064;2022-09-03T09:08:50;24.00;99.90
7331;DHT22;3706;49.198;7.064;2022-09-03T09:11:29;23.20;99.90
7331;DHT22;3706;49.198;7.064;2022-09-03T09:14:03;22.60;99.90
7331;DHT22;3706;49.198;7.064;2022-09-03T09:16:37;22.10;99.90
7331;DHT22;3706;49.198;7.064;2022-09-03T09:19:16;21.70;99.90
7331;DHT22;3706;49.198;7.064;2022-09-03T09:21:51;21.50;99.90
7331;DHT22;3706;49.198;7.064;2022-09-03T09:24:22;21.30;99.90
7331;DHT22;3706;49.198;7.064;2022-09-03T09:26:54;21.10;99.90
7331;DHT22;3706;49.198;7.064;2022-09-03T09:29:25;21.00;99.90
7331;DHT22;3706;49.198;7.064;2022-09-03T09:31:53;21.00;99.90
7331;DHT22;3706;49.198;7.064;2022-09-03T09:34:20;21.00;99.90
7331;DHT22;3706;49.198;7.064;2022-09-03T09:36:51;20.90;99.90
7331;DHT22;3706;49.198;7.064;2022-09-03T09:39:18;21.10;99.90
7331;DHT22;3706;49.198;7.064;2022-09-03T09:41:56;21.30;99.90
7331;DHT22;3706;49.198;7.064;2022-09-03T09:44:25;21.80;99.90
7331;DHT22;3706;49.198;7.064;2022-09-03T09:47:02;23.00;99.90
7331;DHT22;3706;49.198;7.064;2022-09-03T09:49:33;24.80;99.90
7331;DHT22;3706;49.198;7.064;2022-09-03T09:52:05;26.00;99.90
7331;DHT22;3706;49.198;7.064;2022-09-03T09:54:33;26.60;99.90
7331;DHT22;3706;49.198;7.064;2022-09-03T09:57:02;26.90;99.90
7331;DHT22;3706;49.198;7.064;2022-09-03T09:59:31;26.70;99.90
7331;DHT22;3706;49.198;7.064;2022-09-03T10:02:11;26.10;99.90
7331;DHT22;3706;49.198;7.064;2022-09-03T10:04:39;25.50;99.90
7331;DHT22;3706;49.198;7.064;2022-09-03T10:07:22;24.90;99.90
7331;DHT22;3706;49.198;7.064;2022-09-03T10:10:05;24.30;99.90
7331;DHT22;3706;49.198;7.064;2022-09-03T10:12:35;23.90;99.90
7331;DHT22;3706;49.198;7.064;2022-09-03T10:15:21;23.80;99.90
7331;DHT22;3706;49.198;7.064;2022-09-03T10:18:02;23.90;99.90
7331;DHT22;3706;49.198;7.064;2022-09-03T10:20:35;24.20;99.90
7331;DHT22;3706;49.198;7.064;2022-09-03T10:23:15;24.50;99.90
7331;DHT22;3706;49.198;7.064;2022-09-03T10:25:55;24.60;99.90
7331;DHT22;3706;49.198;7.064;2022-09-03T10:28:26;24.50;99.90
7331;DHT22;3706;49.198;7.064;2022-09-03T10:31:25;24.20;99.90
7331;DHT22;3706;49.198;7.064;2022-09-03T10:34:01;23.50;99.90
7331;DHT22;3706;49.198;7.064;2022-09-03T10:36:35;23.20;99.90
7331;DHT22;3706;49.198;7.064;2022-09-03T10:39:12;23.10;99.90
7331;DHT22;3706;49.198;7.064;2022-09-03T10:41:50;23.20;99.90
7331;DHT22;3706;49.198;7.064;2022-09-03T10:44:35;23.40;99.90
7331;DHT22;3706;49.198;7.064;2022-09-03T10:47:20;23.80;99.90
7331;DHT22;3706;49.198;7.064;2022-09-03T10:49:54;24.40;99.90
7331;DHT22;3706;49.198;7.064;2022-09-03T10:52:28;25.00;99.90
7331;DHT22;3706;49.198;7.064;2022-09-03T10:55:10;25.50;99.90
7331;DHT22;3706;49.198;7.064;2022-09-03T10:57:47;26.60;99.90
7331;DHT22;3706;49.198;7.064;2022-09-03T11:00:16;28.00;98.40
7331;DHT22;3706;49.198;7.064;2022-09-03T11:05:58;30.10;91.70
7331;DHT22;3706;49.198;7.064;2022-09-03T11:08:29;30.60;88.30
7331;DHT22;3706;49.198;7.064;2022-09-03T11:11:08;31.00;84.30
7331;DHT22;3706;49.198;7.064;2022-09-03T11:13:39;31.20;81.80
7331;DHT22;3706;49.198;7.064;2022-09-03T11:16:14;31.30;80.50
7331;DHT22;3706;49.198;7.064;2022-09-03T11:18:48;31.50;78.90
7331;DHT22;3706;49.198;7.064;2022-09-03T11:21:18;30.50;79.40
7331;DHT22;3706;49.198;7.064;2022-09-03T11:23:49;29.20;82.60
7331;DHT22;3706;49.198;7.064;2022-09-03T11:26:21;28.00;85.90
7331;DHT22;3706;49.198;7.064;2022-09-03T11:28:56;27.00;89.00
7331;DHT22;3706;49.198;7.064;2022-09-03T11:31:32;26.70;91.30
7331;DHT22;3706;49.198;7.064;2022-09-03T11:34:06;27.00;91.10
7331;DHT22;3706;49.198;7.064;2022-09-03T11:36:35;27.20;91.20
7331;DHT22;3706;49.198;7.064;2022-09-03T11:39:12;27.50;90.30
7331;DHT22;3706;49.198;7.064;2022-09-03T11:41:42;28.30;89.00
7331;DHT22;3706;49.198;7.064;2022-09-03T11:44:16;28.80;86.60
7331;DHT22;3706;49.198;7.064;2022-09-03T11:46:53;29.10;84.20
7331;DHT22;3706;49.198;7.064;2022-09-03T11:49:27;29.40;83.00
7331;DHT22;3706;49.198;7.064;2022-09-03T11:51:58;29.20;82.40
7331;DHT22;3706;49.198;7.064;2022-09-03T11:54:26;29.40;82.40
7331;DHT22;3706;49.198;7.064;2022-09-03T11:57:12;29.80;80.60
7331;DHT22;3706;49.198;7.064;2022-09-03T11:59:41;30.40;78.20
7331;DHT22;3706;49.198;7.064;2022-09-03T12:02:19;30.80;76.40
7331;DHT22;3706;49.198;7.064;2022-09-03T12:05:01;31.20;75.60
7331;DHT22;3706;49.198;7.064;2022-09-03T12:07:43;30.80;75.80
7331;DHT22;3706;49.198;7.064;2022-09-03T12:10:34;29.60;77.00
7331;DHT22;3706;49.198;7.064;2022-09-03T12:13:16;28.60;80.40
7331;DHT22;3706;49.198;7.064;2022-09-03T12:16:06;27.90;83.30
7331;DHT22;3706;49.198;7.064;2022-09-03T12:18:40;27.40;83.90
7331;DHT22;3706;49.198;7.064;2022-09-03T12:21:10;26.90;86.20
7331;DHT22;3706;49.198;7.064;2022-09-03T12:23:41;26.30;88.80
7331;DHT22;3706;49.198;7.064;2022-09-03T12:26:11;25.90;90.10
7331;DHT22;3706;49.198;7.064;2022-09-03T12:28:42;25.90;90.30
7331;DHT22;3706;49.198;7.064;2022-09-03T12:31:14;26.10;89.60
7331;DHT22;3706;49.198;7.064;2022-09-03T12:33:50;26.40;89.50
7331;DHT22;3706;49.198;7.064;2022-09-03T12:36:19;26.40;89.60
7331;DHT22;3706;49.198;7.064;2022-09-03T12:38:46;26.00;90.20
7331;DHT22;3706;49.198;7.064;2022-09-03T12:41:24;25.70;90.80
7331;DHT22;3706;49.198;7.064;2022-09-03T12:43:55;25.30;91.30
7331;DHT22;3706;49.198;7.064;2022-09-03T12:46:24;24.90;91.80
7331;DHT22;3706;49.198;7.064;2022-09-03T12:48:55;24.60;92.40
7331;DHT22;3706;49.198;7.064;2022-09-03T12:51:24;24.40;92.90
7331;DHT22;3706;49.198;7.064;2022-09-03T12:53:51;24.30;93.20
7331;DHT22;3706;49.198;7.064;2022-09-03T12:56:20;24.20;93.80
7331;DHT22;3706;49.198;7.064;2022-09-03T12:58:53;24.10;94.20
7331;DHT22;3706;49.198;7.064;2022-09-03T13:01:26;24.00;94.50
7331;DHT22;3706;49.198;7.064;2022-09-03T13:04:01;23.80;94.90
7331;DHT22;3706;49.198;7.064;2022-09-03T13:06:43;23.70;95.60
7331;DHT22;3706;49.198;7.064;2022-09-03T13:09:17;23.60;95.80
7331;DHT22;3706;49.198;7.064;2022-09-03T13:11:45;23.40;96.50
7331;DHT22;3706;49.198;7.064;2022-09-03T13:14:13;23.20;97.50
7331;DHT22;3706;49.198;7.064;2022-09-03T13:17:01;22.70;98.40
7331;DHT22;3706;49.198;7.064;2022-09-03T13:19:42;22.00;99.90
7331;DHT22;3706;49.198;7.064;2022-09-03T13:22:20;21.30;99.90
7331;DHT22;3706;49.198;7.064;2022-09-03T13:25:12;20.80;99.90
7331;DHT22;3706;49.198;7.064;2022-09-03T13:27:45;20.40;99.90
7331;DHT22;3706;49.198;7.064;2022-09-03T13:30:21;20.20;99.90
7331;DHT22;3706;49.198;7.064;2022-09-03T13:32:56;20.10;99.90
7331;DHT22;3706;49.198;7.064;2022-09-03T13:35:29;20.10;99.90
7331;DHT22;3706;49.198;7.064;2022-09-03T13:38:07;20.00;99.90
7331;DHT22;3706;49.198;7.064;2022-09-03T13:40:41;19.90;99.90
7331;DHT22;3706;49.198;7.064;2022-09-03T13:43:21;19.70;99.90
7331;DHT22;3706;49.198;7.064;2022-09-03T13:45:55;19.40;99.90
7331;DHT22;3706;49.198;7.064;2022-09-03T13:48:29;19.20;99.90
7331;DHT22;3706;49.198;7.064;2022-09-03T13:51:18;19.00;99.90
7331;DHT22;3706;49.198;7.064;2022-09-03T13:53:56;18.80;99.90
7331;DHT22;3706;49.198;7.064;2022-09-03T13:56:33;18.80;99.90
7331;DHT22;3706;49.198;7.064;2022-09-03T13:59:05;18.90;99.90
7331;DHT22;3706;49.198;7.064;2022-09-03T14:01:44;19.10;99.90
7331;DHT22;3706;49.198;7.064;2022-09-03T14:04:21;19.40;99.90
7331;DHT22;3706;49.198;7.064;2022-09-03T14:06:58;19.50;99.90
7331;DHT22;3706;49.198;7.064;2022-09-03T14:09:34;19.60;99.90
7331;DHT22;3706;49.198;7.064;2022-09-03T14:12:09;19.70;99.90
7331;DHT22;3706;49.198;7.064;2022-09-03T14:14:45;19.80;99.90
7331;DHT22;3706;49.198;7.064;2022-09-03T14:17:25;19.90;99.90
7331;DHT22;3706;49.198;7.064;2022-09-03T14:19:59;20.10;99.90
7331;DHT22;3706;49.198;7.064;2022-09-03T14:22:32;20.40;99.90
7331;DHT22;3706;49.198;7.064;2022-09-03T14:25:10;20.70;99.90
7331;DHT22;3706;49.198;7.064;2022-09-03T14:27:39;21.10;99.90
7331;DHT22;3706;49.198;7.064;2022-09-03T14:30:17;21.30;99.90
7331;DHT22;3706;49.198;7.064;2022-09-03T14:32:52;21.70;99.90
7331;DHT22;3706;49.198;7.064;2022-09-03T14:35:36;22.20;99.90
7331;DHT22;3706;49.198;7.064;2022-09-03T14:38:33;22.80;99.90
7331;DHT22;3706;49.198;7.064;2022-09-03T14:41:06;23.40;99.90
7331;DHT22;3706;49.198;7.064;2022-09-03T14:47:11;24.10;99.90
7331;DHT22;3706;49.198;7.064;2022-09-03T14:50:04;24.20;99.90
7331;DHT22;3706;49.198;7.064;2022-09-03T14:52:48;24.10;99.90
7331;DHT22;3706;49.198;7.064;2022-09-03T14:55:28;24.20;99.90
7331;DHT22;3706;49.198;7.064;2022-09-03T14:58:13;24.20;99.90
7331;DHT22;3706;49.198;7.064;2022-09-03T15:00:50;24.20;99.90
7331;DHT22;3706;49.198;7.064;2022-09-03T15:03:42;24.20;99.90
7331;DHT22;3706;49.198;7.064;2022-09-03T15:06:24;23.80;99.90
7331;DHT22;3706;49.198;7.064;2022-09-03T15:09:14;23.60;99.90
7331;DHT22;3706;49.198;7.064;2022-09-03T15:11:48;23.30;99.90
7331;DHT22;3706;49.198;7.064;2022-09-03T15:14:21;23.30;99.90
7331;DHT22;3706;49.198;7.064;2022-09-03T15:16:55;23.10;99.90
7331;DHT22;3706;49.198;7.064;2022-09-03T15:19:47;23.00;99.90
7331;DHT22;3706;49.198;7.064;2022-09-03T15:22:35;22.90;99.90
7331;DHT22;3706;49.198;7.064;2022-09-03T15:25:15;22.80;99.90
7331;DHT22;3706;49.198;7.064;2022-09-03T15:27:55;22.90;99.90
7331;DHT22;3706;49.198;7.064;2022-09-03T15:30:33;23.10;99.90
7331;DHT22;3706;49.198;7.064;2022-09-03T15:33:10;23.10;99.90
7331;DHT22;3706;49.198;7.064;2022-09-03T15:35:52;23.20;99.90
7331;DHT22;3706;49.198;7.064;2022-09-03T15:38:38;23.20;99.90
7331;DHT22;3706;49.198;7.064;2022-09-03T15:41:16;23.10;99.90
7331;DHT22;3706;49.198;7.064;2022-09-03T15:43:48;22.90;99.90
7331;DHT22;3706;49.198;7.064;2022-09-03T15:46:45;22.60;99.90
7331;DHT22;3706;49.198;7.064;2022-09-03T15:49:25;22.40;99.90
7331;DHT22;3706;49.198;7.064;2022-09-03T15:52:02;22.30;99.90
7331;DHT22;3706;49.198;7.064;2022-09-03T15:54:41;22.20;99.90
7331;DHT22;3706;49.198;7.064;2022-09-03T15:57:12;22.20;99.90
7331;DHT22;3706;49.198;7.064;2022-09-03T15:59:48;22.20;99.90
7331;DHT22;3706;49.198;7.064;2022-09-03T16:02:19;22.20;99.90
7331;DHT22;3706;49.198;7.064;2022-09-03T16:04:59;22.30;99.90
7331;DHT22;3706;49.198;7.064;2022-09-03T16:07:47;22.20;99.90
7331;DHT22;3706;49.198;7.064;2022-09-03T16:10:18;22.20;99.90
7331;DHT22;3706;49.198;7.064;2022-09-03T16:15:37;22.30;99.90
7331;DHT22;3706;49.198;7.064;2022-09-03T16:18:08;22.30;99.90
7331;DHT22;3706;49.198;7.064;2022-09-03T16:20:42;22.40;99.90
7331;DHT22;3706;49.198;7.064;2022-09-03T16:23:15;22.40;99.90
7331;DHT22;3706;49.198;7.064;2022-09-03T16:25:51;22.50;99.90
7331;DHT22;3706;49.198;7.064;2022-09-03T16:28:27;22.50;99.90
7331;DHT22;3706;49.198;7.064;2022-09-03T16:31:02;22.50;99.90
7331;DHT22;3706;49.198;7.064;2022-09-03T16:33:38;22.50;99.90
7331;DHT22;3706;49.198;7.064;2022-09-03T16:36:22;22.60;99.90
7331;DHT22;3706;49.198;7.064;2022-09-03T16:39:01;22.60;99.90
7331;DHT22;3706;49.198;7.064;2022-09-03T16:41:34;22.60;99.90
7331;DHT22;3706;49.198;7.064;2022-09-03T16:44:10;22.50;99.90
7331;DHT22;3706;49.198;7.064;2022-09-03T16:46:46;22.40;99.90
7331;DHT22;3706;49.198;7.064;2022-09-03T16:49:30;22.30;99.90
7331;DHT22;3706;49.198;7.064;2022-09-03T16:52:07;22.10;99.90